Terminal Aerodrome Forecast
Issued by NWS

Home | Current Version | Previous Version | Text Only | Print | Product List | Glossary On
Versions: 1 2 3 4 5 6 7 8 9 10 11 12 13 14 15 16
000
FTUS43 KDLH 152320
TAFBRD
TAF
KBRD 152320Z 1600/1624 25005KT P6SM BKN090
     FM160200 26004KT P6SM FEW250
     FM161800 21011G18KT P6SM FEW250=

USA.gov is the U.S. government's official web portal to all federal, state and local government web resources and services.